createdAt,value
2022-11-09T00:04:28.904Z,68.96
2022-11-09T00:09:49.776Z,69.10
2022-11-09T00:15:10.395Z,69.20
2022-11-09T00:20:30.970Z,69.59
2022-11-09T00:25:51.706Z,69.73
2022-11-09T00:31:14.504Z,69.33
2022-11-09T00:36:35.308Z,69.51
2022-11-09T00:41:56.145Z,69.33
2022-11-09T00:47:17.060Z,69.26
2022-11-09T00:52:38.456Z,69.70
2022-11-09T00:57:59.174Z,69.84
2022-11-09T01:03:21.063Z,70.02
2022-11-09T01:08:41.856Z,70.11
2022-11-09T01:14:02.348Z,70.44
2022-11-09T01:19:23.189Z,70.16
2022-11-09T01:24:46.779Z,70.07
2022-11-09T01:30:07.756Z,70.07
2022-11-09T01:35:28.822Z,70.06
2022-11-09T01:40:49.957Z,70.29
2022-11-09T01:46:24.221Z,70.35
2022-11-09T01:51:50.794Z,70.48
2022-11-09T01:57:15.020Z,70.28
2022-11-09T02:02:36.495Z,70.49
2022-11-09T02:07:58.479Z,70.48
2022-11-09T02:13:21.805Z,70.72
2022-11-09T02:18:51.621Z,70.35
2022-11-09T02:24:12.728Z,70.39
2022-11-09T02:29:35.717Z,70.68
2022-11-09T02:34:57.010Z,70.99
2022-11-09T02:40:28.998Z,70.39
2022-11-09T02:45:50.060Z,70.38
2022-11-09T02:51:10.862Z,70.77
2022-11-09T02:56:31.603Z,70.85
2022-11-09T03:01:53.591Z,69.48
2022-11-09T03:07:14.824Z,69.32
2022-11-09T03:12:36.302Z,69.19
2022-11-09T03:18:00.987Z,69.90
2022-11-09T03:23:22.096Z,69.91
2022-11-09T03:28:43.260Z,70.70
2022-11-09T03:34:04.006Z,70.77
2022-11-09T03:39:24.981Z,71.36
2022-11-09T03:44:45.428Z,71.23
2022-11-09T03:50:06.418Z,71.40
2022-11-09T03:55:27.386Z,71.12
2022-11-09T04:00:48.249Z,70.89
2022-11-09T04:06:09.041Z,71.00
2022-11-09T04:11:29.967Z,70.64
2022-11-09T04:16:50.792Z,71.37
2022-11-09T04:22:11.579Z,72.26
2022-11-09T04:27:32.499Z,71.78
2022-11-09T04:32:53.595Z,72.30
2022-11-09T04:38:14.905Z,72.28
2022-11-09T04:43:35.654Z,71.93
2022-11-09T04:48:56.467Z,71.74
2022-11-09T04:54:17.331Z,72.31
2022-11-09T04:59:38.132Z,72.10
2022-11-09T05:04:58.844Z,71.22
2022-11-09T05:10:19.856Z,71.67
2022-11-09T05:15:40.812Z,71.66
2022-11-09T05:21:02.106Z,71.98
2022-11-09T05:26:22.891Z,71.78
2022-11-09T05:31:51.841Z,72.26
2022-11-09T05:37:13.541Z,72.74
2022-11-09T05:42:34.704Z,72.66
2022-11-09T05:47:55.287Z,72.49
2022-11-09T05:53:16.070Z,72.81
2022-11-09T05:58:38.787Z,72.91
2022-11-09T06:03:59.529Z,72.88
2022-11-09T06:09:20.509Z,72.94
2022-11-09T06:14:41.076Z,72.71
2022-11-09T06:20:01.926Z,73.07
2022-11-09T06:25:23.222Z,73.65
2022-11-09T06:30:44.130Z,73.45
2022-11-09T06:36:05.470Z,73.89
2022-11-09T06:41:26.377Z,73.59
2022-11-09T06:46:47.190Z,73.59
2022-11-09T06:52:07.965Z,74.03
2022-11-09T06:57:31.855Z,74.07
2022-11-09T07:02:52.782Z,74.36
2022-11-09T07:08:13.805Z,74.04
2022-11-09T07:13:34.559Z,74.69
2022-11-09T07:18:55.126Z,74.41
2022-11-09T07:24:15.838Z,74.72
2022-11-09T07:29:36.859Z,75.07
2022-11-09T07:34:57.598Z,74.55
2022-11-09T07:40:18.772Z,75.12
2022-11-09T07:45:39.584Z,75.05
2022-11-09T07:51:01.041Z,74.95
2022-11-09T07:56:21.601Z,74.46
2022-11-09T08:01:42.445Z,75.05
2022-11-09T08:07:03.403Z,74.45
2022-11-09T08:12:24.065Z,74.20
2022-11-09T08:17:45.021Z,74.53
2022-11-09T08:23:06.165Z,74.12
2022-11-09T08:28:26.920Z,74.50
2022-11-09T08:33:47.903Z,74.75
2022-11-09T08:39:08.741Z,74.93
2022-11-09T08:44:29.328Z,74.54
2022-11-09T08:49:50.251Z,74.90
2022-11-09T08:55:11.147Z,74.88
2022-11-09T09:00:32.277Z,74.95
2022-11-09T09:05:52.911Z,74.95
2022-11-09T09:11:13.891Z,75.02
2022-11-09T09:16:34.437Z,74.82
2022-11-09T09:21:55.570Z,74.81
2022-11-09T09:27:16.376Z,74.34
2022-11-09T09:32:36.834Z,74.61
2022-11-09T09:37:58.403Z,74.60
2022-11-09T09:43:45.983Z,74.89
2022-11-09T09:49:10.875Z,74.80
2022-11-09T09:54:35.731Z,74.93
2022-11-09T09:59:59.331Z,74.71
2022-11-09T10:05:20.857Z,74.89
2022-11-09T10:10:47.883Z,74.60
2022-11-09T10:16:27.538Z,74.46
2022-11-09T10:21:52.615Z,74.62
2022-11-09T10:27:25.984Z,74.71
2022-11-09T10:32:55.149Z,74.53
2022-11-09T10:38:21.334Z,74.45
2022-11-09T10:44:01.177Z,74.81
2022-11-09T10:49:40.939Z,74.23
2022-11-09T10:55:27.657Z,74.05
2022-11-09T11:01:13.611Z,73.54
2022-11-09T11:06:53.144Z,73.94
2022-11-09T11:12:32.720Z,73.96
2022-11-09T11:18:23.671Z,73.27
2022-11-09T11:24:02.902Z,73.76
2022-11-09T11:30:00.913Z,72.70
2022-11-09T11:35:55.372Z,72.90
2022-11-09T11:41:45.988Z,72.86
2022-11-09T11:47:28.434Z,73.07
2022-11-09T11:53:26.101Z,72.67
2022-11-09T11:59:08.227Z,72.43
2022-11-09T12:05:14.393Z,72.27
2022-11-09T12:10:53.790Z,72.32
2022-11-09T12:16:44.887Z,71.85
2022-11-09T12:22:24.237Z,71.67
2022-11-09T12:28:14.695Z,71.36
2022-11-09T12:34:07.637Z,71.31
2022-11-09T12:39:48.872Z,71.26
2022-11-09T12:45:31.092Z,71.30
2022-11-09T12:51:10.708Z,71.37
2022-11-09T12:56:54.489Z,71.26
2022-11-09T13:02:38.326Z,71.39
2022-11-09T13:08:20.117Z,71.34
2022-11-09T13:14:19.208Z,71.19
2022-11-09T13:19:58.362Z,71.68
2022-11-09T13:25:48.296Z,71.36
2022-11-09T13:31:46.818Z,71.57
2022-11-09T13:37:34.983Z,71.51
2022-11-09T13:43:16.686Z,71.29
2022-11-09T13:48:56.151Z,71.66
2022-11-09T13:54:36.735Z,71.99
2022-11-09T14:00:25.375Z,71.57
2022-11-09T14:06:04.503Z,71.40
2022-11-09T14:11:54.373Z,71.67
2022-11-09T14:17:41.143Z,71.65
2022-11-09T14:23:21.936Z,71.69
2022-11-09T14:29:11.005Z,71.76
2022-11-09T14:34:50.481Z,71.69
2022-11-09T14:40:31.058Z,71.83
2022-11-09T14:46:16.074Z,71.79
2022-11-09T14:51:55.527Z,71.76
2022-11-09T14:57:36.586Z,71.58
2022-11-09T15:03:27.264Z,71.77
2022-11-09T15:09:08.709Z,71.67
2022-11-09T15:14:53.694Z,71.48
2022-11-09T15:20:34.126Z,71.61
2022-11-09T15:26:43.668Z,71.28
2022-11-09T15:32:24.520Z,71.60
2022-11-09T15:38:04.173Z,71.40
2022-11-09T15:43:44.379Z,71.08
2022-11-09T15:49:26.396Z,72.69
2022-11-09T15:55:06.075Z,71.76
2022-11-09T16:00:46.039Z,71.08
2022-11-09T16:06:26.946Z,71.30
2022-11-09T16:12:06.508Z,71.01
2022-11-09T16:17:46.170Z,71.04
2022-11-09T16:23:28.942Z,71.31
2022-11-09T16:29:08.472Z,71.31
2022-11-09T16:35:08.472Z,71.39
2022-11-09T16:40:47.345Z,71.77
2022-11-09T16:46:28.604Z,71.88
2022-11-09T16:52:09.452Z,71.25
2022-11-09T16:57:48.931Z,71.43
2022-11-09T17:03:28.411Z,71.29
2022-11-09T17:09:07.836Z,71.08
2022-11-09T17:14:48.485Z,71.74
2022-11-09T17:20:28.049Z,71.80
2022-11-09T17:26:08.000Z,71.94
2022-11-09T17:31:47.671Z,71.81
2022-11-09T17:37:27.421Z,73.98
2022-11-09T17:43:06.999Z,74.82
2022-11-09T17:48:47.551Z,71.70
2022-11-09T17:54:35.507Z,71.05
2022-11-09T18:00:16.926Z,71.63
2022-11-09T18:05:56.576Z,72.26
2022-11-09T18:11:36.225Z,72.27
2022-11-09T18:17:15.616Z,72.35
2022-11-09T18:22:55.367Z,72.11
2022-11-09T18:28:35.403Z,71.92
2022-11-09T18:34:15.105Z,72.26
2022-11-09T18:39:54.559Z,71.83
2022-11-09T18:45:34.951Z,72.07
2022-11-09T18:51:13.944Z,71.41
2022-11-09T18:56:53.419Z,72.04
2022-11-09T19:02:34.662Z,71.89
2022-11-09T19:08:16.434Z,72.23
2022-11-09T19:13:56.226Z,72.00
2022-11-09T19:19:35.715Z,71.97
2022-11-09T19:25:15.122Z,72.36
2022-11-09T19:30:54.699Z,72.39
2022-11-09T19:36:33.946Z,72.54
2022-11-09T19:42:14.127Z,72.80
2022-11-09T19:47:53.884Z,73.13
2022-11-09T19:53:36.966Z,73.27
2022-11-09T19:59:20.809Z,73.09
2022-11-09T20:05:00.410Z,73.33
2022-11-09T20:10:39.792Z,73.17
2022-11-09T20:16:19.070Z,73.07
2022-11-09T20:21:58.582Z,73.55
2022-11-09T20:27:38.222Z,73.78
2022-11-09T20:33:17.740Z,73.68
2022-11-09T20:38:57.239Z,73.93
2022-11-09T20:44:36.601Z,73.87
2022-11-09T20:50:16.010Z,73.98
2022-11-09T20:55:55.720Z,73.83
2022-11-09T21:01:35.130Z,74.19
2022-11-09T21:07:14.766Z,74.01
2022-11-09T21:12:54.537Z,74.41
2022-11-09T21:18:33.815Z,74.52
2022-11-09T21:24:32.135Z,74.60
2022-11-09T21:30:12.008Z,74.61
2022-11-09T21:35:51.588Z,74.72
2022-11-09T21:41:39.957Z,74.70
2022-11-09T21:47:19.310Z,74.56
2022-11-09T21:52:58.404Z,74.71
2022-11-09T21:58:37.547Z,74.61
2022-11-09T22:04:17.011Z,74.67
2022-11-09T22:10:10.085Z,74.58
2022-11-09T22:16:09.338Z,75.16
2022-11-09T22:21:48.804Z,75.05
2022-11-09T22:27:30.023Z,75.02
2022-11-09T22:33:09.301Z,74.98
2022-11-09T22:38:48.858Z,75.04
2022-11-09T22:44:28.133Z,74.97
2022-11-09T22:50:07.861Z,75.09
2022-11-09T22:55:51.839Z,75.29
2022-11-09T23:01:31.239Z,75.56
2022-11-09T23:07:10.544Z,75.48
2022-11-09T23:12:50.493Z,75.68
2022-11-09T23:18:49.034Z,75.24
2022-11-09T23:24:47.300Z,75.44
2022-11-09T23:30:26.881Z,75.67
2022-11-09T23:36:06.856Z,75.69
2022-11-09T23:41:46.392Z,75.80
2022-11-09T23:47:25.538Z,75.68
2022-11-09T23:53:04.773Z,75.59
2022-11-09T23:58:46.827Z,76.06
